Jasonville, Indiana
Current Conditions -  °F | °C
As of 2:53 PM on Tuesday 21 Oct 2014 (Local Time) from KHUF Reporting Station
Broken Clouds Broken Clouds  
Wind Chill: 59°   Ceiling: 4900
Heat Index: 59°   Visibility: 10mi
Dew Point: 39°   Wind: 12mph
Humidity: 48%   Direction: 360°N
Pressure: 30.11"   Gusts: 18mph
Location:  39.16°N, 87.2°W
Report Text: KHUF 211853Z 36010G16KT 10SM BKN049 15/04 A3011 RMK AO2 SLP197 T01500039 $
Loading
Personal Weather Stations






























Interactive Weather Map New forecast layout! Learn more

10-Day Weather Forecast

Advertisements
Track Severe Weather on mobile